Terminal Aerodrome Forecast
Issued by NWS Miami, FL

Home | Current Version | Previous Version | Text Only | Print | Product List | Glossary On
Versions: 1 2 3 4 5 6 7 8 9 10 11 12 13 14 15 16 17 18 19 20 21 22 23 24 25 26 27 28 29 30 31 32 33 34 35 36 37 38 39 40 41 42 43 44 45 46 47 48 49 50
000
FTUS42 KMFL 250307 AAA
TAFFLL
TAF AMD
KFLL 250307Z 2503/2606 12007KT P6SM VCSH SCT050 BKN100 BKN250
     FM250600 VRB05KT P6SM SCT050 BKN100 BKN250
     FM251400 12010KT P6SM VCSH SCT035 BKN100
     FM251800 13013KT P6SM VCTS SCT020CB BKN040 BKN100
     FM260300 11010KT P6SM VCSH SCT040 BKN120=

USA.gov is the U.S. government's official web portal to all federal, state and local government web resources and services.